createdAt,value
2019-05-03T00:00:43.898Z,8.10
2019-05-03T00:02:37.720Z,8.00
2019-05-03T00:04:15.908Z,8.00
2019-05-03T00:05:54.137Z,7.90
2019-05-03T00:07:31.729Z,7.90
2019-05-03T00:09:14.200Z,7.90
2019-05-03T00:10:51.779Z,7.90
2019-05-03T00:12:28.235Z,7.80
2019-05-03T00:14:05.565Z,7.70
2019-05-03T00:15:44.629Z,7.70
2019-05-03T00:17:21.888Z,7.60
2019-05-03T00:19:00.946Z,7.60
2019-05-03T00:20:36.338Z,7.50
2019-05-03T00:22:12.837Z,7.50
2019-05-03T00:23:49.266Z,7.50
2019-05-03T00:25:26.006Z,7.40
2019-05-03T00:27:02.442Z,7.40
2019-05-03T00:28:38.703Z,7.40
2019-05-03T00:30:15.477Z,7.40
2019-05-03T00:31:51.762Z,7.40
2019-05-03T00:33:28.200Z,7.40
2019-05-03T00:35:05.472Z,7.30
2019-05-03T00:36:58.806Z,7.30
2019-05-03T00:38:36.365Z,7.40
2019-05-03T00:40:26.590Z,7.30
2019-05-03T00:42:03.035Z,7.30
2019-05-03T00:43:39.361Z,7.30
2019-05-03T00:45:16.057Z,7.30
2019-05-03T00:46:52.807Z,7.30
2019-05-03T00:48:29.339Z,7.20
2019-05-03T00:50:08.129Z,7.20
2019-05-03T00:51:44.487Z,7.20
2019-05-03T00:53:22.361Z,7.10
2019-05-03T00:54:59.014Z,7.10
2019-05-03T00:56:35.485Z,7.10
2019-05-03T00:58:11.926Z,7.10
2019-05-03T00:59:48.308Z,7.10
2019-05-03T01:01:24.812Z,7.10
2019-05-03T01:03:02.188Z,7.10
2019-05-03T01:04:38.742Z,7.10
2019-05-03T01:06:15.218Z,7.10
2019-05-03T01:07:52.558Z,7.10
2019-05-03T01:09:31.600Z,7.00
2019-05-03T01:11:07.292Z,7.10
2019-05-03T01:12:43.650Z,7.10
2019-05-03T01:14:20.158Z,7.10
2019-05-03T01:15:58.174Z,7.10
2019-05-03T01:17:36.182Z,7.10
2019-05-03T01:19:12.585Z,7.10
2019-05-03T01:20:48.850Z,7.10
2019-05-03T01:22:25.292Z,7.10
2019-05-03T01:24:01.709Z,7.10
2019-05-03T01:25:38.173Z,7.10
2019-05-03T01:27:14.577Z,7.10
2019-05-03T01:28:52.109Z,7.10
2019-05-03T01:30:28.885Z,7.10
2019-05-03T01:32:05.357Z,7.10
2019-05-03T01:33:42.612Z,7.10
2019-05-03T01:35:19.101Z,7.10
2019-05-03T01:36:56.532Z,7.10
2019-05-03T01:38:32.855Z,7.10
2019-05-03T01:40:09.555Z,7.10
2019-05-03T01:41:45.936Z,7.10
2019-05-03T01:43:22.345Z,7.10
2019-05-03T01:44:59.281Z,7.10
2019-05-03T01:46:35.916Z,7.10
2019-05-03T01:48:13.848Z,7.10
2019-05-03T01:49:52.569Z,7.10
2019-05-03T01:51:39.426Z,7.20
2019-05-03T01:53:17.433Z,7.10
2019-05-03T01:54:54.172Z,7.20
2019-05-03T01:56:31.661Z,7.10
2019-05-03T01:58:08.058Z,7.10
2019-05-03T01:59:44.425Z,7.20
2019-05-03T02:01:22.105Z,7.20
2019-05-03T02:03:03.586Z,7.20
2019-05-03T02:04:44.579Z,7.20
2019-05-03T02:06:22.369Z,7.20
2019-05-03T02:07:58.858Z,7.20
2019-05-03T02:09:35.175Z,7.10
2019-05-03T02:11:11.712Z,7.10
2019-05-03T02:12:48.231Z,7.10
2019-05-03T02:14:25.027Z,7.10
2019-05-03T02:16:02.292Z,7.00
2019-05-03T02:17:38.936Z,7.10
2019-05-03T02:19:15.776Z,7.10
2019-05-03T02:20:52.600Z,7.10
2019-05-03T02:22:29.013Z,7.10
2019-05-03T02:24:05.516Z,7.00
2019-05-03T02:25:42.066Z,7.00
2019-05-03T02:27:18.992Z,7.00
2019-05-03T02:28:55.546Z,7.00
2019-05-03T02:30:33.236Z,7.00
2019-05-03T02:32:09.811Z,7.00
2019-05-03T02:33:46.115Z,7.00
2019-05-03T02:35:22.778Z,7.00
2019-05-03T02:36:59.257Z,7.00
2019-05-03T02:38:35.614Z,7.10
2019-05-03T02:40:13.339Z,7.10
2019-05-03T02:41:57.612Z,7.20
2019-05-03T02:43:29.891Z,7.20
2019-05-03T02:45:10.602Z,7.20
2019-05-03T02:46:52.728Z,7.20
2019-05-03T02:48:36.229Z,7.20
2019-05-03T02:50:16.470Z,7.20
2019-05-03T02:51:51.865Z,7.30
2019-05-03T02:53:28.309Z,7.30
2019-05-03T02:55:09.481Z,7.30
2019-05-03T02:56:46.214Z,7.30
2019-05-03T02:58:25.156Z,7.40
2019-05-03T03:00:00.946Z,7.40
2019-05-03T03:01:37.897Z,7.40
2019-05-03T03:03:16.577Z,7.40
2019-05-03T03:04:56.313Z,7.40
2019-05-03T03:06:36.424Z,7.40
2019-05-03T03:08:12.400Z,7.40
2019-05-03T03:09:49.894Z,7.30
2019-05-03T03:11:30.439Z,7.30
2019-05-03T03:13:09.709Z,7.20
2019-05-03T03:14:48.311Z,7.20
2019-05-03T03:16:26.615Z,7.20
2019-05-03T03:18:06.330Z,7.30
2019-05-03T03:19:49.782Z,7.30
2019-05-03T03:21:32.389Z,7.30
2019-05-03T03:23:15.346Z,7.20
2019-05-03T03:24:55.891Z,7.20
2019-05-03T03:26:37.969Z,7.20
2019-05-03T03:28:15.872Z,7.20
2019-05-03T03:29:59.643Z,7.20
2019-05-03T03:32:08.923Z,7.30
2019-05-03T03:33:47.131Z,7.30
2019-05-03T03:35:29.637Z,7.50
2019-05-03T03:37:06.618Z,7.60
2019-05-03T03:38:42.017Z,7.60
2019-05-03T03:40:20.825Z,7.60
2019-05-03T03:41:57.722Z,7.70
2019-05-03T03:43:35.568Z,7.80
2019-05-03T03:45:12.413Z,7.80
2019-05-03T03:46:51.123Z,7.80
2019-05-03T03:48:31.162Z,7.80
2019-05-03T03:50:09.092Z,7.80
2019-05-03T03:51:49.217Z,7.90
2019-05-03T03:53:28.745Z,8.00
2019-05-03T03:55:07.111Z,8.10
2019-05-03T03:57:02.098Z,8.30
2019-05-03T03:58:27.107Z,8.40
2019-05-03T04:00:08.454Z,8.60
2019-05-03T04:01:45.689Z,8.80
2019-05-03T04:03:25.695Z,9.10
2019-05-03T04:05:01.344Z,9.40
2019-05-03T04:06:40.731Z,9.60
2019-05-03T04:08:17.696Z,9.90
2019-05-03T04:09:56.214Z,10.10
2019-05-03T04:11:32.512Z,10.30
2019-05-03T04:13:10.894Z,10.50
2019-05-03T04:15:05.650Z,10.70
2019-05-03T04:16:57.123Z,10.90
2019-05-03T04:18:45.567Z,11.20
2019-05-03T04:20:25.706Z,11.50
2019-05-03T04:22:05.651Z,11.80
2019-05-03T04:23:41.715Z,12.00
2019-05-03T04:25:18.215Z,12.30
2019-05-03T04:27:18.043Z,12.40
2019-05-03T04:28:45.491Z,12.60
2019-05-03T04:30:21.931Z,12.80
2019-05-03T04:31:58.229Z,12.80
2019-05-03T04:33:35.903Z,12.80
2019-05-03T04:35:16.106Z,12.90
2019-05-03T04:36:51.358Z,12.90
2019-05-03T04:38:27.797Z,12.80
2019-05-03T04:40:06.320Z,12.80
2019-05-03T04:41:45.198Z,12.80
2019-05-03T04:43:20.986Z,12.90
2019-05-03T04:44:57.663Z,13.10
2019-05-03T04:46:35.847Z,13.10
2019-05-03T04:48:11.951Z,13.30
2019-05-03T04:49:48.428Z,13.40
2019-05-03T04:51:25.835Z,13.60
2019-05-03T04:53:05.533Z,13.80
2019-05-03T04:54:51.475Z,14.00
2019-05-03T04:56:27.913Z,14.20
2019-05-03T04:58:04.861Z,14.50
2019-05-03T04:59:41.243Z,14.60
2019-05-03T05:01:17.761Z,14.70
2019-05-03T05:02:55.185Z,15.00
2019-05-03T05:04:32.025Z,15.10
2019-05-03T05:06:08.543Z,15.40
2019-05-03T05:07:45.971Z,15.70
2019-05-03T05:09:22.650Z,15.90
2019-05-03T05:10:59.137Z,16.30
2019-05-03T05:12:35.725Z,16.20
2019-05-03T05:14:12.162Z,16.70
2019-05-03T05:15:48.596Z,16.80
2019-05-03T05:17:32.193Z,17.00
2019-05-03T05:19:10.341Z,16.90
2019-05-03T05:20:48.821Z,16.80
2019-05-03T05:22:26.839Z,16.90
2019-05-03T05:24:05.501Z,17.00
2019-05-03T05:25:44.580Z,17.00
2019-05-03T05:27:31.657Z,16.80
2019-05-03T05:29:09.768Z,16.60
2019-05-03T05:30:46.475Z,16.30
2019-05-03T05:32:24.635Z,16.20
2019-05-03T05:34:01.416Z,16.10
2019-05-03T05:35:37.812Z,16.00
2019-05-03T05:37:14.558Z,16.00
2019-05-03T05:38:51.219Z,16.10
2019-05-03T05:40:27.836Z,16.10
2019-05-03T05:42:04.621Z,15.70
2019-05-03T05:43:41.230Z,15.40
2019-05-03T05:45:18.831Z,15.30
2019-05-03T05:46:56.487Z,15.10
2019-05-03T05:48:40.880Z,15.10
2019-05-03T05:50:36.948Z,15.10
2019-05-03T05:52:15.495Z,15.00
2019-05-03T05:53:52.259Z,15.00
2019-05-03T05:55:47.005Z,15.00
2019-05-03T05:57:25.480Z,15.00
2019-05-03T05:59:04.440Z,15.00
2019-05-03T06:00:45.505Z,14.80
2019-05-03T06:02:22.205Z,14.80
2019-05-03T06:03:58.580Z,14.60
2019-05-03T06:05:35.648Z,14.60
2019-05-03T06:07:24.720Z,14.50
2019-05-03T06:09:08.184Z,14.50
2019-05-03T06:10:47.633Z,14.50
2019-05-03T06:12:37.768Z,14.50
2019-05-03T06:14:15.852Z,14.50
2019-05-03T06:15:56.872Z,14.40
2019-05-03T06:17:46.904Z,14.40
2019-05-03T06:19:44.876Z,14.30
2019-05-03T06:21:35.190Z,14.20
2019-05-03T06:23:14.442Z,14.10
2019-05-03T06:24:54.333Z,14.00
2019-05-03T06:26:48.402Z,13.90
2019-05-03T06:28:29.640Z,13.90
2019-05-03T06:30:26.338Z,14.00
2019-05-03T06:32:10.483Z,14.10
2019-05-03T06:33:46.866Z,14.20
2019-05-03T06:35:24.387Z,14.20
2019-05-03T06:37:17.867Z,14.10
2019-05-03T06:38:54.737Z,14.10
2019-05-03T06:40:31.194Z,14.10
2019-05-03T06:42:09.846Z,14.30
2019-05-03T06:43:48.737Z,14.70
2019-05-03T06:45:25.086Z,15.10
2019-05-03T06:47:08.778Z,15.40
2019-05-03T06:48:39.878Z,15.50
2019-05-03T06:50:19.599Z,15.60
2019-05-03T06:51:55.324Z,15.80
2019-05-03T06:53:31.803Z,16.10
2019-05-03T06:55:10.499Z,16.60
2019-05-03T06:56:46.554Z,16.60
2019-05-03T06:58:31.370Z,16.80
2019-05-03T07:00:08.587Z,17.10
2019-05-03T07:02:02.872Z,17.10
2019-05-03T07:03:41.271Z,17.20
2019-05-03T07:05:17.407Z,17.30
2019-05-03T07:06:58.411Z,17.40
2019-05-03T07:08:45.472Z,17.50
2019-05-03T07:10:25.592Z,17.50
2019-05-03T07:12:01.953Z,17.50
2019-05-03T07:13:38.329Z,17.40
2019-05-03T07:15:14.980Z,17.40
2019-05-03T07:16:51.393Z,17.50
2019-05-03T07:18:27.695Z,17.70
2019-05-03T07:20:05.105Z,17.90
2019-05-03T07:21:41.478Z,18.30
2019-05-03T07:23:17.782Z,18.60
2019-05-03T07:24:54.676Z,19.10
2019-05-03T07:26:31.364Z,19.50
2019-05-03T07:28:08.036Z,19.60
2019-05-03T07:29:44.712Z,19.60
2019-05-03T07:31:21.044Z,19.40
2019-05-03T07:33:02.168Z,19.40
2019-05-03T07:34:38.775Z,19.20
2019-05-03T07:36:15.694Z,19.00
2019-05-03T07:37:52.519Z,18.90
2019-05-03T07:39:28.889Z,18.80
2019-05-03T07:41:05.482Z,19.00
2019-05-03T07:42:41.845Z,19.10
2019-05-03T07:44:18.322Z,19.30
2019-05-03T07:45:55.336Z,19.30
2019-05-03T07:47:31.861Z,19.20
2019-05-03T07:49:08.432Z,19.30
2019-05-03T07:50:45.087Z,19.20
2019-05-03T07:52:21.872Z,19.20
2019-05-03T07:53:58.151Z,19.20
2019-05-03T07:55:51.663Z,19.30
2019-05-03T07:57:32.455Z,19.10
2019-05-03T07:59:08.732Z,19.10
2019-05-03T08:00:46.105Z,18.90
2019-05-03T08:02:25.129Z,18.90
2019-05-03T08:04:00.770Z,18.60
2019-05-03T08:05:37.065Z,18.40
2019-05-03T08:07:20.677Z,18.20
2019-05-03T08:08:51.850Z,18.00
2019-05-03T08:10:28.437Z,17.70
2019-05-03T08:12:05.266Z,17.30
2019-05-03T08:13:41.715Z,17.00
2019-05-03T08:15:18.229Z,16.60
2019-05-03T08:16:54.901Z,16.40
2019-05-03T08:18:31.221Z,16.20
2019-05-03T08:20:08.763Z,16.00
2019-05-03T08:21:45.428Z,15.60
2019-05-03T08:23:27.349Z,15.50
2019-05-03T08:25:01.086Z,15.30
2019-05-03T08:26:37.601Z,15.20
2019-05-03T08:28:14.740Z,15.10
2019-05-03T08:29:51.715Z,15.00
2019-05-03T08:31:36.670Z,14.90
2019-05-03T08:33:31.201Z,14.60
2019-05-03T08:35:12.326Z,14.50
2019-05-03T08:36:59.301Z,14.30
2019-05-03T08:38:35.712Z,14.30
2019-05-03T08:40:12.554Z,14.00
2019-05-03T08:41:56.274Z,13.90
2019-05-03T08:43:32.650Z,13.90
2019-05-03T08:45:09.360Z,13.80
2019-05-03T08:46:47.139Z,13.60
2019-05-03T08:48:24.977Z,13.60
2019-05-03T08:50:01.527Z,13.50
2019-05-03T08:51:38.443Z,13.40
2019-05-03T08:53:15.747Z,13.40
2019-05-03T08:54:52.228Z,13.20
2019-05-03T08:56:28.545Z,13.30
2019-05-03T08:58:05.329Z,13.20
2019-05-03T08:59:41.729Z,13.30
2019-05-03T09:01:19.160Z,13.40
2019-05-03T09:02:55.804Z,13.30
2019-05-03T09:04:37.537Z,13.10
2019-05-03T09:06:10.244Z,13.00
2019-05-03T09:07:46.739Z,13.10
2019-05-03T09:09:27.920Z,13.00
2019-05-03T09:11:08.375Z,13.10
2019-05-03T09:13:05.547Z,13.10
2019-05-03T09:14:45.517Z,13.10
2019-05-03T09:16:19.106Z,13.00
2019-05-03T09:17:55.516Z,13.10
2019-05-03T09:19:32.017Z,13.00
2019-05-03T09:21:14.783Z,13.00
2019-05-03T09:22:51.597Z,12.90
2019-05-03T09:24:27.974Z,12.80
2019-05-03T09:26:04.687Z,12.80
2019-05-03T09:27:41.361Z,12.70
2019-05-03T09:29:17.864Z,12.60
2019-05-03T09:30:55.267Z,12.60
2019-05-03T09:32:31.751Z,12.60
2019-05-03T09:34:09.264Z,12.70
2019-05-03T09:35:45.921Z,12.90
2019-05-03T09:37:22.279Z,13.00
2019-05-03T09:38:58.961Z,13.00
2019-05-03T09:40:36.107Z,13.00
2019-05-03T09:42:12.477Z,12.90
2019-05-03T09:43:48.844Z,12.80
2019-05-03T09:45:25.296Z,12.90
2019-05-03T09:47:01.738Z,12.40
2019-05-03T09:48:38.018Z,12.40
2019-05-03T09:50:15.720Z,12.50
2019-05-03T09:51:54.832Z,12.40
2019-05-03T09:53:35.147Z,12.30
2019-05-03T09:55:31.940Z,12.20
2019-05-03T09:57:08.306Z,12.20
2019-05-03T09:58:46.123Z,12.10
2019-05-03T10:00:24.556Z,12.00
2019-05-03T10:02:04.452Z,11.80
2019-05-03T10:03:40.717Z,12.00
2019-05-03T10:05:17.376Z,12.00
2019-05-03T10:06:54.778Z,12.10
2019-05-03T10:08:31.304Z,12.10
2019-05-03T10:10:07.815Z,12.10
2019-05-03T10:11:45.912Z,12.00
2019-05-03T10:13:23.791Z,12.00
2019-05-03T10:15:00.634Z,12.10
2019-05-03T10:16:41.757Z,12.10
2019-05-03T10:18:18.190Z,11.80
2019-05-03T10:19:54.841Z,11.80
2019-05-03T10:21:35.385Z,11.90
2019-05-03T10:23:14.791Z,11.90
2019-05-03T10:24:51.431Z,11.90
2019-05-03T10:26:27.870Z,12.00
2019-05-03T10:28:05.807Z,12.00
2019-05-03T10:29:42.214Z,12.00
2019-05-03T10:31:18.883Z,12.00
2019-05-03T10:33:05.818Z,12.00
2019-05-03T10:34:43.151Z,12.00
2019-05-03T10:36:20.126Z,12.00
2019-05-03T10:37:56.678Z,11.90
2019-05-03T10:39:33.052Z,12.00
2019-05-03T10:41:09.936Z,11.90
2019-05-03T10:42:46.929Z,11.90
2019-05-03T10:44:24.562Z,12.00
2019-05-03T10:46:01.314Z,11.90
2019-05-03T10:47:37.882Z,11.90
2019-05-03T10:49:15.336Z,11.80
2019-05-03T10:50:52.653Z,11.60
2019-05-03T10:52:31.882Z,11.40
2019-05-03T10:54:08.275Z,11.30
2019-05-03T10:55:46.261Z,11.30
2019-05-03T10:57:24.885Z,11.40
2019-05-03T10:59:02.761Z,11.20
2019-05-03T11:00:46.262Z,11.10
2019-05-03T11:02:37.274Z,11.20
2019-05-03T11:04:14.764Z,11.20
2019-05-03T11:05:54.830Z,11.10
2019-05-03T11:07:31.205Z,11.10
2019-05-03T11:09:08.329Z,11.20
2019-05-03T11:10:44.659Z,11.20
2019-05-03T11:12:21.094Z,11.20
2019-05-03T11:13:57.499Z,11.20
2019-05-03T11:15:35.073Z,11.20
2019-05-03T11:17:11.419Z,11.30
2019-05-03T11:18:50.926Z,11.30
2019-05-03T11:20:36.223Z,11.40
2019-05-03T11:22:14.555Z,11.50
2019-05-03T11:23:51.794Z,11.50
2019-05-03T11:25:30.289Z,11.40
2019-05-03T11:27:08.465Z,11.40
2019-05-03T11:28:44.947Z,11.40
2019-05-03T11:30:21.458Z,11.30
2019-05-03T11:31:57.740Z,11.30
2019-05-03T11:33:38.743Z,11.20
2019-05-03T11:35:20.951Z,11.00
2019-05-03T11:36:58.178Z,11.00
2019-05-03T11:38:36.172Z,10.90
2019-05-03T11:40:12.782Z,10.90
2019-05-03T11:41:51.772Z,10.90
2019-05-03T11:43:28.042Z,10.60
2019-05-03T11:45:06.859Z,10.60
2019-05-03T11:46:44.504Z,10.60
2019-05-03T11:48:21.574Z,10.60
2019-05-03T11:49:57.858Z,10.60
2019-05-03T11:51:35.359Z,10.60
2019-05-03T11:53:11.778Z,10.60
2019-05-03T11:54:48.141Z,10.70
2019-05-03T11:56:25.293Z,10.70
2019-05-03T11:58:05.514Z,10.80
2019-05-03T11:59:41.471Z,10.70
2019-05-03T12:01:20.290Z,10.70
2019-05-03T12:02:59.006Z,10.80
2019-05-03T12:04:35.484Z,10.80
2019-05-03T12:06:11.971Z,10.90
2019-05-03T12:07:48.379Z,10.80
2019-05-03T12:09:25.118Z,10.80
2019-05-03T12:11:01.859Z,10.80
2019-05-03T12:12:40.050Z,10.50
2019-05-03T12:14:16.408Z,10.50
2019-05-03T12:15:55.126Z,10.60
2019-05-03T12:17:36.074Z,10.50
2019-05-03T12:19:17.177Z,10.40
2019-05-03T12:20:52.514Z,10.40
2019-05-03T12:22:30.021Z,10.50
2019-05-03T12:24:07.348Z,10.50
2019-05-03T12:25:45.904Z,10.50
2019-05-03T12:27:24.413Z,10.50
2019-05-03T12:29:01.003Z,10.50
2019-05-03T12:30:37.618Z,10.60
2019-05-03T12:32:14.483Z,10.60
2019-05-03T12:33:51.244Z,10.70
2019-05-03T12:35:27.801Z,10.70
2019-05-03T12:37:05.218Z,10.70
2019-05-03T12:38:42.641Z,10.60
2019-05-03T12:40:20.325Z,10.70
2019-05-03T12:41:57.870Z,10.70
2019-05-03T12:43:38.317Z,10.70
2019-05-03T12:45:17.323Z,10.80
2019-05-03T12:46:53.770Z,10.80
2019-05-03T12:48:30.124Z,10.90
2019-05-03T12:50:09.774Z,10.90
2019-05-03T12:51:45.978Z,11.00
2019-05-03T12:53:25.282Z,11.00
2019-05-03T12:55:01.778Z,11.00
2019-05-03T12:56:38.151Z,11.00
2019-05-03T12:58:15.075Z,11.00
2019-05-03T12:59:55.523Z,11.00
2019-05-03T13:01:41.821Z,11.00
2019-05-03T13:03:18.218Z,10.90
2019-05-03T13:04:55.380Z,11.00
2019-05-03T13:06:34.615Z,11.20
2019-05-03T13:08:40.797Z,11.20
2019-05-03T13:10:22.808Z,11.40
2019-05-03T13:11:59.178Z,11.70
2019-05-03T13:13:36.036Z,11.70
2019-05-03T13:15:14.450Z,11.80
2019-05-03T13:16:50.988Z,11.90
2019-05-03T13:18:27.429Z,11.90
2019-05-03T13:20:05.443Z,12.00
2019-05-03T13:21:41.787Z,12.00
2019-05-03T13:23:18.160Z,12.10
2019-05-03T13:24:54.593Z,12.20
2019-05-03T13:26:31.036Z,12.30
2019-05-03T13:28:07.409Z,12.50
2019-05-03T13:29:45.331Z,12.80
2019-05-03T13:31:22.034Z,13.00
2019-05-03T13:32:58.887Z,13.00
2019-05-03T13:34:35.531Z,13.20
2019-05-03T13:36:12.190Z,13.50
2019-05-03T13:37:48.643Z,13.70
2019-05-03T13:39:26.518Z,13.80
2019-05-03T13:41:03.245Z,13.90
2019-05-03T13:42:53.417Z,13.90
2019-05-03T13:44:17.711Z,14.00
2019-05-03T13:45:55.652Z,13.90
2019-05-03T13:47:32.279Z,13.70
2019-05-03T13:49:10.621Z,13.70
2019-05-03T13:50:47.086Z,13.70
2019-05-03T13:52:25.097Z,13.70
2019-05-03T13:54:01.821Z,13.40
2019-05-03T13:55:38.438Z,13.40
2019-05-03T13:57:15.431Z,13.40
2019-05-03T13:58:52.095Z,13.30
2019-05-03T14:00:28.609Z,13.30
2019-05-03T14:02:15.237Z,13.20
2019-05-03T14:03:45.093Z,13.20
2019-05-03T14:05:21.378Z,13.20
2019-05-03T14:06:58.290Z,13.20
2019-05-03T14:08:35.126Z,13.20
2019-05-03T14:10:12.106Z,13.20
2019-05-03T14:11:48.406Z,13.20
2019-05-03T14:13:24.814Z,13.10
2019-05-03T14:15:02.251Z,13.20
2019-05-03T14:16:38.693Z,13.20
2019-05-03T14:18:16.127Z,13.20
2019-05-03T14:19:55.416Z,13.30
2019-05-03T14:21:35.207Z,13.30
2019-05-03T14:23:11.608Z,13.30
2019-05-03T14:24:48.043Z,13.20
2019-05-03T14:26:25.495Z,13.20
2019-05-03T14:28:02.146Z,13.10
2019-05-03T14:29:38.609Z,13.00
2019-05-03T14:31:15.024Z,12.90
2019-05-03T14:32:51.356Z,12.90
2019-05-03T14:34:28.739Z,12.80
2019-05-03T14:36:05.347Z,12.60
2019-05-03T14:37:41.997Z,12.40
2019-05-03T14:39:18.436Z,12.40
2019-05-03T14:40:55.220Z,12.20
2019-05-03T14:42:31.836Z,12.20
2019-05-03T14:44:10.275Z,12.20
2019-05-03T14:45:46.727Z,12.10
2019-05-03T14:47:25.200Z,12.10
2019-05-03T14:49:01.828Z,12.10
2019-05-03T14:50:38.315Z,11.90
2019-05-03T14:52:14.827Z,11.90
2019-05-03T14:53:51.560Z,11.90
2019-05-03T14:55:35.426Z,11.80
2019-05-03T14:57:14.572Z,11.80
2019-05-03T14:58:51.839Z,11.80
2019-05-03T15:00:34.575Z,11.80
2019-05-03T15:02:19.160Z,11.80
2019-05-03T15:03:55.380Z,11.70
2019-05-03T15:05:31.894Z,11.70
2019-05-03T15:07:08.173Z,11.70
2019-05-03T15:08:44.749Z,11.70
2019-05-03T15:10:21.252Z,11.80
2019-05-03T15:11:57.691Z,11.80
2019-05-03T15:13:34.965Z,11.80
2019-05-03T15:15:14.495Z,11.90
2019-05-03T15:16:50.532Z,11.80
2019-05-03T15:18:26.973Z,11.90
2019-05-03T15:20:04.781Z,11.90
2019-05-03T15:21:41.113Z,12.00
2019-05-03T15:23:18.476Z,12.00
2019-05-03T15:24:54.983Z,12.00
2019-05-03T15:26:31.498Z,12.10
2019-05-03T15:28:08.022Z,12.00
2019-05-03T15:29:44.885Z,12.00
2019-05-03T15:31:21.378Z,12.10
2019-05-03T15:33:00.900Z,12.00
2019-05-03T15:34:36.144Z,12.00
2019-05-03T15:36:12.787Z,12.10
2019-05-03T15:37:49.265Z,12.10
2019-05-03T15:39:25.699Z,12.10
2019-05-03T15:41:02.022Z,12.20
2019-05-03T15:42:40.083Z,12.10
2019-05-03T15:44:18.082Z,12.10
2019-05-03T15:45:59.268Z,12.10
2019-05-03T15:47:37.117Z,12.10
2019-05-03T15:49:15.115Z,12.20
2019-05-03T15:50:52.066Z,12.10
2019-05-03T15:52:28.540Z,12.20
2019-05-03T15:54:05.163Z,12.10
2019-05-03T15:55:41.572Z,12.10
2019-05-03T15:57:18.050Z,12.00
2019-05-03T15:58:55.142Z,12.00
2019-05-03T16:00:31.778Z,12.00
2019-05-03T16:02:08.217Z,12.00
2019-05-03T16:03:44.931Z,12.00
2019-05-03T16:05:21.643Z,12.00
2019-05-03T16:06:58.442Z,12.00
2019-05-03T16:08:34.951Z,12.00
2019-05-03T16:10:11.562Z,11.90
2019-05-03T16:11:47.837Z,12.00
2019-05-03T16:13:25.287Z,11.90
2019-05-03T16:15:02.083Z,11.90
2019-05-03T16:16:38.486Z,11.90
2019-05-03T16:18:14.958Z,11.80
2019-05-03T16:19:55.586Z,11.90
2019-05-03T16:21:31.430Z,11.90
2019-05-03T16:23:07.866Z,11.70
2019-05-03T16:24:44.816Z,11.80
2019-05-03T16:26:22.520Z,11.80
2019-05-03T16:28:00.426Z,11.80
2019-05-03T16:29:36.879Z,11.80
2019-05-03T16:31:15.000Z,11.70
2019-05-03T16:32:51.431Z,11.70
2019-05-03T16:34:27.772Z,11.60
2019-05-03T16:36:05.507Z,11.60
2019-05-03T16:37:42.119Z,11.60
2019-05-03T16:39:18.461Z,11.50
2019-05-03T16:40:54.964Z,11.50
2019-05-03T16:42:31.284Z,11.50
2019-05-03T16:44:07.655Z,11.50
2019-05-03T16:45:45.093Z,11.50
2019-05-03T16:47:22.263Z,11.50
2019-05-03T16:48:59.034Z,11.50
2019-05-03T16:50:35.557Z,11.50
2019-05-03T16:52:11.956Z,11.40
2019-05-03T16:53:48.403Z,11.40
2019-05-03T16:55:25.692Z,11.30
2019-05-03T16:57:02.293Z,11.30
2019-05-03T16:58:38.719Z,11.20
2019-05-03T17:00:17.939Z,11.10
2019-05-03T17:01:55.192Z,11.10
2019-05-03T17:03:39.312Z,11.10
2019-05-03T17:05:16.176Z,11.00
2019-05-03T17:06:55.298Z,11.00
2019-05-03T17:08:36.321Z,11.00
2019-05-03T17:10:30.582Z,11.00
2019-05-03T17:12:15.209Z,11.00
2019-05-03T17:13:51.559Z,10.90
2019-05-03T17:15:29.416Z,10.80
2019-05-03T17:17:07.236Z,10.80
2019-05-03T17:18:44.656Z,10.80
2019-05-03T17:20:21.332Z,10.80
2019-05-03T17:21:57.868Z,10.70
2019-05-03T17:23:35.344Z,10.70
2019-05-03T17:25:12.051Z,10.70
2019-05-03T17:26:49.527Z,10.70
2019-05-03T17:28:25.974Z,10.60
2019-05-03T17:30:04.510Z,10.60
2019-05-03T17:31:40.384Z,10.60
2019-05-03T17:33:28.831Z,10.50
2019-05-03T17:35:09.875Z,10.50
2019-05-03T17:36:47.948Z,10.50
2019-05-03T17:38:24.421Z,10.40
2019-05-03T17:40:14.896Z,10.40
2019-05-03T17:41:55.419Z,10.40
2019-05-03T17:43:34.619Z,10.30
2019-05-03T17:45:15.896Z,10.30
2019-05-03T17:46:52.275Z,10.30
2019-05-03T17:48:28.615Z,10.20
2019-05-03T17:50:08.024Z,10.20
2019-05-03T17:51:48.817Z,10.20
2019-05-03T17:53:26.080Z,10.10
2019-05-03T17:55:06.843Z,10.20
2019-05-03T17:56:44.862Z,10.10
2019-05-03T17:58:37.686Z,10.10
2019-05-03T18:00:26.327Z,10.10
2019-05-03T18:02:16.485Z,10.00
2019-05-03T18:04:06.655Z,10.00
2019-05-03T18:05:44.830Z,9.90
2019-05-03T18:07:30.436Z,9.90
2019-05-03T18:09:22.797Z,9.90
2019-05-03T18:11:14.771Z,9.90
2019-05-03T18:12:51.623Z,9.90
2019-05-03T18:14:28.030Z,9.80
2019-05-03T18:16:04.833Z,9.80
2019-05-03T18:17:41.256Z,9.90
2019-05-03T18:19:17.630Z,9.80
2019-05-03T18:20:55.503Z,9.80
2019-05-03T18:22:32.018Z,9.80
2019-05-03T18:24:08.377Z,9.70
2019-05-03T18:25:44.877Z,9.80
2019-05-03T18:27:21.462Z,9.80
2019-05-03T18:28:58.236Z,9.70
2019-05-03T18:30:35.000Z,9.70
2019-05-03T18:32:11.463Z,9.70
2019-05-03T18:34:57.747Z,9.70
2019-05-03T18:36:34.710Z,9.70
2019-05-03T18:38:11.415Z,9.60
2019-05-03T18:39:47.793Z,9.60
2019-05-03T18:41:25.522Z,9.60
2019-05-03T18:43:06.830Z,9.60
2019-05-03T18:44:55.205Z,9.60
2019-05-03T18:46:34.364Z,9.50
2019-05-03T18:48:10.880Z,9.50
2019-05-03T18:49:47.311Z,9.50
2019-05-03T18:51:25.203Z,9.50
2019-05-03T18:53:01.682Z,9.40
2019-05-03T18:54:38.040Z,9.40
2019-05-03T18:56:14.820Z,9.40
2019-05-03T18:57:51.396Z,9.40
2019-05-03T18:59:27.726Z,9.40
2019-05-03T19:01:06.073Z,9.40
2019-05-03T19:02:44.406Z,9.40
2019-05-03T19:04:32.347Z,9.40
2019-05-03T19:06:05.369Z,9.40
2019-05-03T19:07:45.291Z,9.30
2019-05-03T19:09:39.561Z,9.30
2019-05-03T19:11:22.096Z,9.30
2019-05-03T19:13:00.730Z,9.30
2019-05-03T19:14:37.140Z,9.20
2019-05-03T19:16:18.238Z,9.30
2019-05-03T19:17:56.315Z,9.30
2019-05-03T19:19:35.232Z,9.20
2019-05-03T19:21:11.856Z,9.30
2019-05-03T19:22:48.284Z,9.20
2019-05-03T19:24:24.718Z,9.20
2019-05-03T19:26:01.357Z,9.20
2019-05-03T19:27:37.760Z,9.20
2019-05-03T19:29:14.893Z,9.20
2019-05-03T19:30:51.605Z,9.20
2019-05-03T19:32:28.529Z,9.20
2019-05-03T19:34:06.062Z,9.10
2019-05-03T19:35:44.319Z,9.10
2019-05-03T19:37:20.712Z,9.10
2019-05-03T19:38:58.043Z,9.10
2019-05-03T19:40:35.095Z,9.10
2019-05-03T19:42:11.862Z,9.10
2019-05-03T19:43:48.295Z,9.10
2019-05-03T19:45:24.965Z,9.00
2019-05-03T19:47:01.047Z,9.00
2019-05-03T19:48:37.529Z,9.00
2019-05-03T19:50:15.778Z,9.00
2019-05-03T19:51:52.156Z,9.00
2019-05-03T19:53:28.459Z,9.00
2019-05-03T19:55:07.140Z,9.00
2019-05-03T19:56:44.588Z,9.00
2019-05-03T19:58:22.163Z,9.00
2019-05-03T19:59:58.508Z,8.90
2019-05-03T20:01:36.524Z,8.90
2019-05-03T20:03:30.802Z,8.90
2019-05-03T20:05:14.951Z,8.90
2019-05-03T20:07:02.333Z,8.90
2019-05-03T20:08:40.311Z,8.90
2019-05-03T20:10:18.237Z,8.90
2019-05-03T20:11:55.228Z,8.80
2019-05-03T20:13:34.772Z,8.80
2019-05-03T20:15:11.088Z,8.80
2019-05-03T20:16:47.454Z,8.80
2019-05-03T20:18:23.995Z,8.70
2019-05-03T20:19:59.998Z,8.70
2019-05-03T20:21:36.544Z,8.70
2019-05-03T20:23:14.643Z,8.70
2019-05-03T20:24:52.295Z,8.70
2019-05-03T20:26:28.703Z,8.60
2019-05-03T20:28:05.505Z,8.60
2019-05-03T20:29:43.798Z,8.60
2019-05-03T20:31:20.282Z,8.60
2019-05-03T20:32:57.118Z,8.60
2019-05-03T20:34:33.632Z,8.50
2019-05-03T20:36:10.181Z,8.50
2019-05-03T20:37:47.538Z,8.50
2019-05-03T20:39:25.429Z,8.50
2019-05-03T20:41:02.218Z,8.50
2019-05-03T20:42:55.662Z,8.50
2019-05-03T20:44:44.702Z,8.50
2019-05-03T20:46:22.539Z,8.40
2019-05-03T20:48:00.567Z,8.40
2019-05-03T20:49:37.191Z,8.40
2019-05-03T20:51:16.571Z,8.30
2019-05-03T20:52:54.834Z,8.30
2019-05-03T20:54:34.994Z,8.20
2019-05-03T20:56:11.480Z,8.20
2019-05-03T20:57:48.415Z,8.20
2019-05-03T20:59:25.398Z,8.20
2019-05-03T21:01:01.873Z,8.20
2019-05-03T21:02:50.177Z,8.10
2019-05-03T21:04:16.881Z,8.10
2019-05-03T21:05:55.161Z,8.10
2019-05-03T21:07:31.558Z,8.10
2019-05-03T21:09:08.737Z,8.10
2019-05-03T21:10:46.321Z,8.00
2019-05-03T21:12:22.694Z,8.00
2019-05-03T21:13:59.173Z,7.90
2019-05-03T21:15:37.382Z,7.90
2019-05-03T21:17:31.714Z,7.90
2019-05-03T21:19:21.876Z,7.90
2019-05-03T21:21:03.265Z,7.80
2019-05-03T21:22:41.688Z,7.80
2019-05-03T21:24:19.712Z,7.80